Time;durP1;ratioP1;P1;durP2;ratioP2;P2;SDS_P1;SDS_P2;PMS_P1;PMS_P2;Temp;Humidity;BMP_temperature;BMP_pressure;BME280_temperature;BME280_humidity;BME280_pressure;Samples;Min_cycle;Max_cycle;Signal;HPM_P1;HPM_P2
2022/02/11 00:02:10;;;;;;;1.45;0.80;;;7.80;99.90;;;;;;5093038;28;20414;-56
2022/02/11 00:04:58;;;;;;;1.10;0.80;;;7.80;1.00;;;;;;5090458;28;20465;-57
2022/02/11 00:07:25;;;;;;;1.58;0.80;;;7.90;99.90;;;;;;5092495;28;20433;-57
2022/02/11 00:09:52;;;;;;;1.40;0.77;;;8.00;23.00;;;;;;5090905;28;20418;-57
2022/02/11 00:12:20;;;;;;;1.20;0.90;;;8.10;56.80;;;;;;5092919;28;20516;-57
2022/02/11 00:14:55;;;;;;;1.10;0.75;;;8.10;1.00;;;;;;5092712;28;20516;-54
2022/02/11 00:17:22;;;;;;;1.80;0.70;;;8.10;1.00;;;;;;5094031;28;20425;-56
2022/02/11 00:19:49;;;;;;;1.33;0.80;;;8.10;1.00;;;;;;5093087;28;20786;-57
2022/02/11 00:22:16;;;;;;;1.40;0.70;;;7.90;13.50;;;;;;5094453;28;20442;-58
2022/02/11 00:24:43;;;;;;;1.20;0.90;;;7.70;99.90;;;;;;5093621;28;20425;-56
2022/02/11 00:27:46;;;;;;;1.15;0.80;;;7.80;99.90;;;;;;5095565;28;20508;-58
2022/02/11 00:33:17;;;;;;;1.50;0.80;;;7.90;1.00;;;;;;5052365;28;20398;-58
2022/02/11 00:35:50;;;;;;;1.17;0.70;;;7.90;1.00;;;;;;5086550;28;20425;-57
2022/02/11 00:38:22;;;;;;;2.53;0.80;;;7.90;78.00;;;;;;5095205;28;20418;-57
2022/02/11 00:46:49;;;;;;;1.95;0.80;;;7.70;99.90;;;;;;5094661;28;20721;-56
2022/02/11 01:03:02;;;;;;;1.70;0.90;;;8.00;14.50;;;;;;5094840;28;20502;-57
2022/02/11 01:05:30;;;;;;;1.40;1.00;;;8.10;99.90;;;;;;5094161;28;20785;-57
2022/02/11 01:07:57;;;;;;;2.17;1.10;;;8.00;99.90;;;;;;5093015;28;20436;-57
2022/02/11 01:10:24;;;;;;;1.63;1.10;;;8.00;1.00;;;;;;5091908;28;20913;-55
2022/02/11 01:12:51;;;;;;;2.20;1.20;;;7.90;16.70;;;;;;5092393;28;20428;-56
2022/02/11 01:15:19;;;;;;;1.70;1.10;;;7.80;1.00;;;;;;5091827;28;20457;-58
2022/02/11 01:17:50;;;;;;;2.08;0.90;;;7.80;1.00;;;;;;5092174;28;20406;-58
2022/02/11 01:20:26;;;;;;;2.00;1.00;;;7.70;99.90;;;;;;5092036;28;20494;-58
2022/02/11 01:23:13;;;;;;;2.10;1.10;;;7.60;1.00;;;;;;5093206;28;20427;-58
2022/02/11 01:26:00;;;;;;;1.50;0.90;;;7.60;99.90;;;;;;5092847;28;20494;-58
2022/02/11 01:28:40;;;;;;;2.13;1.00;;;7.60;1.00;;;;;;5093682;28;20434;-55
2022/02/11 01:31:17;;;;;;;2.28;0.82;;;7.50;1.00;;;;;;5095200;28;20433;-57
2022/02/11 01:33:59;;;;;;;2.58;1.00;;;7.50;1.00;;;;;;5093640;28;20452;-58
2022/02/11 01:36:51;;;;;;;1.20;0.90;;;7.60;99.90;;;;;;5094732;28;20422;-58
2022/02/11 01:45:20;;;;;;;2.47;0.90;;;7.50;1.00;;;;;;5092542;28;20497;-57
2022/02/11 01:48:33;;;;;;;1.67;0.80;;;7.40;1.00;;;;;;5093968;28;20425;-58
2022/02/11 01:51:12;;;;;;;2.20;0.80;;;7.50;99.90;;;;;;5094744;28;20414;-58
2022/02/11 01:53:46;;;;;;;1.52;0.80;;;7.50;1.00;;;;;;5095287;28;20422;-58
2022/02/11 01:56:32;;;;;;;2.35;0.90;;;7.60;1.00;;;;;;5098416;28;20414;-57
2022/02/11 02:05:10;;;;;;;1.70;0.80;;;7.70;1.00;;;;;;5095343;28;20434;-59
2022/02/11 02:13:15;;;;;;;1.58;0.70;;;7.70;99.90;;;;;;5097925;28;20402;-56
2022/02/11 02:24:25;;;;;;;1.00;0.60;;;7.40;1.00;;;;;;5034602;28;20417;-57
2022/02/11 02:35:34;;;;;;;1.00;0.70;;;7.10;33.50;;;;;;5097478;28;20914;-54
2022/02/11 02:57:42;;;;;;;1.20;0.70;;;7.00;1.00;;;;;;5096501;28;20872;-57
2022/02/11 03:00:37;;;;;;;1.13;0.70;;;6.90;1.00;;;;;;5096573;28;20911;-56
2022/02/11 03:50:07;;;;;;;0.70;0.40;;;6.00;89.20;;;;;;5094596;28;20474;-53
2022/02/11 03:53:09;;;;;;;0.50;0.30;;;5.90;89.30;;;;;;5096779;28;20425;-52
2022/02/11 04:21:00;;;;;;;0.60;0.40;;;4.50;99.90;;;;;;5094050;28;20546;-55
2022/02/11 04:24:14;;;;;;;0.70;0.50;;;4.50;99.90;;;;;;5094719;28;20504;-54
2022/02/11 04:56:45;;;;;;;1.02;0.50;;;4.20;99.90;;;;;;5094777;28;20400;-55
2022/02/11 05:01:57;;;;;;;0.80;0.50;;;4.10;99.90;;;;;;5095025;28;20397;-55
2022/02/11 05:04:24;;;;;;;0.90;0.60;;;4.10;99.90;;;;;;5094210;28;20484;-52
2022/02/11 05:06:51;;;;;;;0.80;0.50;;;4.30;99.90;;;;;;5095101;28;20772;-54
2022/02/11 05:09:18;;;;;;;0.80;0.60;;;4.40;99.90;;;;;;5094147;28;20477;-57
2022/02/11 05:11:46;;;;;;;0.80;0.60;;;4.30;91.70;;;;;;5095273;28;20441;-54
2022/02/11 05:14:14;;;;;;;0.90;0.50;;;4.30;94.30;;;;;;5093927;28;20776;-57
2022/02/11 05:16:41;;;;;;;1.35;0.60;;;4.30;98.90;;;;;;5095302;28;20418;-54
2022/02/11 05:19:08;;;;;;;0.80;0.50;;;4.30;95.60;;;;;;5093270;28;20421;-54
2022/02/11 05:21:35;;;;;;;0.90;0.60;;;4.30;86.20;;;;;;5095060;28;20467;-54
2022/02/11 05:24:02;;;;;;;0.80;0.50;;;4.10;99.90;;;;;;5093457;28;20880;-55
2022/02/11 05:26:29;;;;;;;1.00;0.50;;;4.10;99.90;;;;;;5093863;28;20449;-55
2022/02/11 05:28:57;;;;;;;0.70;0.50;;;4.20;99.90;;;;;;5095260;28;20457;-52
2022/02/11 05:31:24;;;;;;;0.70;0.50;;;4.30;99.90;;;;;;5097774;28;20710;-53
2022/02/11 05:33:51;;;;;;;0.70;0.50;;;4.30;99.90;;;;;;5096682;28;20791;-54
2022/02/11 05:36:18;;;;;;;0.60;0.40;;;4.40;99.90;;;;;;5097773;28;20463;-56
2022/02/11 05:38:45;;;;;;;0.73;0.40;;;4.50;95.10;;;;;;5095761;28;20516;-55
2022/02/11 05:41:15;;;;;;;0.70;0.50;;;4.50;93.90;;;;;;5097207;28;20857;-54
2022/02/11 05:43:42;;;;;;;0.60;0.40;;;4.50;91.50;;;;;;5093588;28;20849;-54
2022/02/11 05:46:11;;;;;;;0.60;0.40;;;4.50;92.60;;;;;;5096577;28;20444;-55
2022/02/11 05:48:39;;;;;;;0.85;0.50;;;4.60;83.30;;;;;;5095665;28;20434;-54
2022/02/11 05:51:07;;;;;;;0.90;0.50;;;4.50;76.40;;;;;;5096990;28;20474;-52
2022/02/11 05:53:34;;;;;;;1.27;0.50;;;4.60;99.90;;;;;;5094706;28;20426;-56
2022/02/11 05:56:02;;;;;;;1.00;0.40;;;4.60;91.60;;;;;;5096084;28;20486;-53
2022/02/11 05:58:29;;;;;;;0.80;0.50;;;4.60;88.50;;;;;;5096460;28;20755;-55
2022/02/11 06:00:56;;;;;;;0.90;0.50;;;4.50;90.30;;;;;;5096940;28;20907;-55
2022/02/11 06:03:24;;;;;;;0.80;0.50;;;4.50;95.90;;;;;;5095624;28;20509;-52
2022/02/11 06:05:51;;;;;;;0.83;0.50;;;4.40;99.90;;;;;;5084912;28;20556;-53
2022/02/11 06:08:18;;;;;;;0.90;0.60;;;4.50;99.90;;;;;;5089523;28;20501;-50
2022/02/11 06:10:44;;;;;;;0.70;0.55;;;4.30;87.10;;;;;;5097437;28;20910;-53
2022/02/11 06:13:11;;;;;;;0.95;0.60;;;4.30;99.90;;;;;;5097350;28;20509;-56
2022/02/11 06:15:38;;;;;;;0.80;0.50;;;4.40;89.40;;;;;;5096342;28;20426;-50
2022/02/11 06:18:05;;;;;;;2.45;0.70;;;4.40;88.00;;;;;;5097523;28;20422;-50
2022/02/11 06:20:36;;;;;;;0.95;0.60;;;4.40;78.20;;;;;;5096454;28;20801;-56
2022/02/11 06:23:04;;;;;;;2.00;0.63;;;4.30;71.70;;;;;;5097036;28;20788;-55
2022/02/11 06:25:31;;;;;;;1.00;0.60;;;4.40;78.70;;;;;;5095761;28;20512;-55
2022/02/11 06:27:58;;;;;;;1.00;0.52;;;4.30;69.60;;;;;;5097356;28;20900;-54
2022/02/11 06:30:25;;;;;;;1.00;0.70;;;4.10;70.30;;;;;;5095575;28;20426;-56
2022/02/11 06:32:52;;;;;;;1.90;0.70;;;4.00;95.90;;;;;;5097249;28;20429;-53
2022/02/11 06:35:19;;;;;;;1.90;0.70;;;4.10;91.50;;;;;;5094942;28;20433;-54
2022/02/11 06:37:50;;;;;;;1.02;0.70;;;4.20;71.60;;;;;;5093897;28;20613;-51
2022/02/11 06:40:17;;;;;;;1.50;0.70;;;4.10;71.90;;;;;;5092525;28;20426;-52
2022/02/11 06:42:45;;;;;;;1.70;0.60;;;4.20;61.70;;;;;;5092430;28;20500;-52
2022/02/11 06:45:12;;;;;;;1.40;0.68;;;4.30;53.10;;;;;;5093403;28;20433;-52
2022/02/11 06:47:39;;;;;;;1.48;0.60;;;4.10;22.70;;;;;;5095190;28;20504;-55
2022/02/11 06:50:06;;;;;;;1.30;0.60;;;4.00;40.40;;;;;;5092990;28;20533;-54
2022/02/11 06:52:33;;;;;;;1.42;0.70;;;4.10;60.80;;;;;;5080464;28;20827;-55
2022/02/11 06:55:02;;;;;;;2.80;0.60;;;4.00;53.20;;;;;;5087003;28;20468;-54
2022/02/11 06:57:28;;;;;;;0.82;0.60;;;4.00;64.20;;;;;;5085988;28;20418;-52
2022/02/11 06:59:55;;;;;;;1.55;0.60;;;4.20;99.90;;;;;;5087963;28;20423;-51
2022/02/11 07:02:24;;;;;;;1.20;0.50;;;4.70;95.50;;;;;;5081911;28;20663;-54
2022/02/11 07:04:51;;;;;;;1.10;0.50;;;4.90;43.70;;;;;;5080918;28;20528;-53
2022/02/11 07:07:18;;;;;;;1.40;0.60;;;5.20;2.40;;;;;;5086884;28;20500;-54
2022/02/11 07:09:44;;;;;;;0.90;0.60;;;4.80;1.00;;;;;;5081781;28;20429;-53
2022/02/11 07:12:13;;;;;;;1.40;0.60;;;4.60;1.00;;;;;;5093139;28;20505;-54
2022/02/11 07:14:40;;;;;;;1.20;0.60;;;4.50;14.30;;;;;;5090648;28;20871;-52
2022/02/11 07:17:08;;;;;;;1.25;0.55;;;4.50;1.00;;;;;;5077717;28;20447;-54
2022/02/11 07:19:35;;;;;;;1.25;0.60;;;4.50;1.00;;;;;;5088739;28;20475;-51
2022/02/11 07:22:03;;;;;;;0.80;0.50;;;4.70;1.00;;;;;;5086246;28;20419;-55
2022/02/11 07:24:30;;;;;;;1.40;0.90;;;5.10;3.10;;;;;;5079920;28;20428;-53
2022/02/11 07:26:58;;;;;;;3.00;1.40;;;5.00;1.00;;;;;;5085706;28;20504;-50
2022/02/11 07:29:26;;;;;;;1.40;0.70;;;4.80;1.00;;;;;;5074580;28;20526;-54
2022/02/11 07:31:53;;;;;;;0.90;0.60;;;4.70;1.00;;;;;;5087374;28;20506;-54
2022/02/11 07:34:20;;;;;;;0.80;0.50;;;5.10;1.00;;;;;;5077467;28;20948;-51
2022/02/11 07:36:47;;;;;;;0.90;0.52;;;5.20;1.00;;;;;;5090151;28;20504;-50
2022/02/11 07:39:14;;;;;;;0.82;0.50;;;5.30;1.00;;;;;;5072830;28;21024;-56
2022/02/11 07:41:41;;;;;;;1.20;0.50;;;5.40;1.00;;;;;;5086862;28;20647;-55
2022/02/11 07:44:08;;;;;;;1.60;0.60;;;5.30;1.00;;;;;;5078025;28;20426;-56
2022/02/11 07:46:36;;;;;;;1.00;0.60;;;5.30;1.00;;;;;;5086829;28;20422;-57
2022/02/11 07:49:03;;;;;;;0.80;0.50;;;4.60;1.00;;;;;;5087420;28;20440;-55
2022/02/11 07:51:30;;;;;;;2.03;0.60;;;4.50;1.80;;;;;;5077258;28;20491;-57
2022/02/11 07:53:59;;;;;;;0.70;0.50;;;4.40;1.00;;;;;;5086596;28;20427;-56
2022/02/11 07:56:26;;;;;;;1.30;0.60;;;4.60;22.00;;;;;;5078672;28;20433;-57
2022/02/11 07:58:54;;;;;;;0.80;0.50;;;5.00;1.00;;;;;;5091061;28;20499;-54
2022/02/11 08:01:21;;;;;;;0.73;0.50;;;5.10;1.00;;;;;;5088576;28;20418;-56
2022/02/11 08:03:52;;;;;;;1.40;0.57;;;5.20;1.00;;;;;;5074597;28;20464;-57
2022/02/11 08:06:19;;;;;;;1.50;0.57;;;5.30;1.00;;;;;;5080159;28;20429;-57
2022/02/11 08:08:47;;;;;;;0.90;0.53;;;4.90;1.00;;;;;;5086288;28;20476;-58
2022/02/11 08:11:14;;;;;;;1.60;0.80;;;4.80;1.00;;;;;;5079636;28;20423;-58
2022/02/11 08:13:40;;;;;;;7.50;4.50;;;4.80;1.00;;;;;;5080776;28;20432;-55
2022/02/11 08:16:08;;;;;;;4.90;2.30;;;4.80;1.00;;;;;;5093005;28;20425;-57
2022/02/11 08:18:35;;;;;;;2.45;1.00;;;4.90;1.00;;;;;;5087014;28;20500;-55
2022/02/11 08:21:04;;;;;;;2.70;0.80;;;5.00;1.00;;;;;;5079118;28;20498;-58
2022/02/11 08:23:32;;;;;;;2.70;0.60;;;5.00;1.00;;;;;;5091379;28;20457;-57
2022/02/11 08:25:59;;;;;;;1.00;0.70;;;5.00;1.00;;;;;;5088413;28;20831;-57
2022/02/11 08:28:27;;;;;;;2.00;0.80;;;5.10;1.00;;;;;;5078297;28;20460;-58
2022/02/11 08:30:57;;;;;;;1.73;0.60;;;5.10;1.00;;;;;;5090415;28;21159;-59
2022/02/11 08:33:24;;;;;;;1.50;0.50;;;5.30;1.00;;;;;;5073704;28;20419;-59
2022/02/11 08:35:51;;;;;;;1.30;0.50;;;5.20;1.00;;;;;;5087521;28;21066;-58
2022/02/11 08:38:20;;;;;;;1.77;0.50;;;5.10;1.00;;;;;;5077696;28;20634;-59
2022/02/11 08:40:48;;;;;;;2.25;0.70;;;4.80;1.00;;;;;;5080460;28;20451;-58
2022/02/11 08:43:15;;;;;;;0.90;0.60;;;4.70;1.00;;;;;;5089573;28;20442;-58
2022/02/11 08:45:44;;;;;;;1.60;0.68;;;4.70;1.00;;;;;;5086138;28;20499;-60
2022/02/11 08:48:14;;;;;;;1.40;0.60;;;5.00;1.00;;;;;;5086197;28;20507;-57
2022/02/11 08:50:42;;;;;;;0.80;0.50;;;5.20;1.00;;;;;;5082971;28;20437;-58
2022/02/11 08:53:10;;;;;;;1.35;0.50;;;5.40;99.90;;;;;;5091835;28;20865;-56
2022/02/11 08:55:38;;;;;;;1.90;0.60;;;5.50;1.00;;;;;;5073768;28;20588;-59
2022/02/11 08:58:06;;;;;;;0.80;0.47;;;5.20;34.40;;;;;;5086072;28;20506;-59
2022/02/11 09:00:33;;;;;;;1.00;0.60;;;5.10;1.00;;;;;;5080196;28;20804;-58
2022/02/11 09:03:01;;;;;;;1.60;0.52;;;5.00;1.00;;;;;;5089951;28;20475;-59
2022/02/11 09:05:29;;;;;;;0.90;0.60;;;5.10;1.00;;;;;;5083701;28;20920;-61
2022/02/11 09:07:58;;;;;;;1.00;0.50;;;5.20;1.00;;;;;;5087955;28;20432;-58
2022/02/11 09:10:26;;;;;;;1.00;0.50;;;5.20;1.00;;;;;;5083526;28;20550;-58
2022/02/11 09:12:57;;;;;;;2.00;0.60;;;5.20;1.00;;;;;;5087911;28;20513;-57
2022/02/11 09:15:26;;;;;;;3.70;1.30;;;5.30;99.90;;;;;;5079587;28;20480;-57
2022/02/11 09:17:55;;;;;;;1.60;0.60;;;5.20;1.00;;;;;;5089871;28;20424;-56
2022/02/11 09:20:23;;;;;;;1.63;0.50;;;4.90;99.90;;;;;;5091644;28;20810;-61
2022/02/11 09:22:51;;;;;;;0.75;0.50;;;5.20;99.90;;;;;;5081633;28;20454;-54
2022/02/11 09:25:20;;;;;;;0.85;0.45;;;5.30;99.90;;;;;;5088685;28;20425;-57
2022/02/11 09:27:47;;;;;;;2.10;0.50;;;5.30;1.00;;;;;;5077651;28;20817;-58
2022/02/11 09:30:18;;;;;;;1.05;0.50;;;5.30;1.00;;;;;;5086071;28;20516;-58
2022/02/11 09:32:46;;;;;;;2.70;0.50;;;5.50;99.90;;;;;;5094185;28;20424;-58
2022/02/11 09:35:14;;;;;;;1.63;0.50;;;5.70;1.00;;;;;;5094526;28;20503;-59
2022/02/11 09:37:42;;;;;;;1.40;0.50;;;5.90;1.00;;;;;;5090622;28;20677;-59
2022/02/11 09:40:11;;;;;;;1.00;0.50;;;5.80;1.00;;;;;;5092492;28;20461;-59
2022/02/11 09:42:39;;;;;;;4.20;1.30;;;5.50;1.00;;;;;;5086511;28;20490;-58
2022/02/11 09:45:07;;;;;;;1.90;0.70;;;5.40;1.00;;;;;;5080766;28;20457;-58
2022/02/11 09:47:37;;;;;;;1.60;0.50;;;5.40;67.80;;;;;;5086182;28;20424;-58
2022/02/11 09:50:05;;;;;;;1.50;0.50;;;5.40;1.00;;;;;;5078557;28;20869;-58
2022/02/11 09:52:38;;;;;;;1.80;0.40;;;5.30;99.90;;;;;;5094147;28;20417;-58
2022/02/11 09:57:51;;;;;;;1.10;0.50;;;5.50;99.90;;;;;;5077919;28;20392;-60
2022/02/11 10:00:18;;;;;;;0.93;0.50;;;5.60;1.00;;;;;;5086321;28;20455;-62
2022/02/11 10:02:55;;;;;;;1.90;0.50;;;5.50;70.30;;;;;;5083522;28;20457;-59
2022/02/11 10:05:23;;;;;;;0.80;0.50;;;5.70;1.00;;;;;;5089032;28;20482;-59
2022/02/11 10:07:50;;;;;;;2.05;0.40;;;5.80;99.90;;;;;;5079908;28;20504;-61
2022/02/11 10:10:38;;;;;;;1.67;0.50;;;5.60;97.30;;;;;;5089233;28;20461;-60
2022/02/11 10:13:06;;;;;;;1.17;0.53;;;5.60;1.00;;;;;;5086523;28;20547;-59
2022/02/11 10:15:38;;;;;;;1.08;0.50;;;5.60;1.00;;;;;;5082666;28;20530;-59
2022/02/11 10:18:07;;;;;;;0.80;0.50;;;5.80;99.90;;;;;;5087296;28;20451;-59
2022/02/11 10:20:39;;;;;;;0.82;0.50;;;6.20;1.00;;;;;;5094669;28;20533;-60
2022/02/11 10:23:17;;;;;;;0.80;0.50;;;6.40;1.00;;;;;;5080056;28;20428;-59
2022/02/11 10:25:55;;;;;;;2.00;0.60;;;6.40;1.00;;;;;;5091177;28;20443;-58
2022/02/11 10:28:26;;;;;;;3.00;0.70;;;6.30;1.00;;;;;;5082325;28;20445;-59
2022/02/11 10:31:13;;;;;;;1.63;0.50;;;6.40;1.00;;;;;;5083573;28;20427;-60
2022/02/11 10:34:07;;;;;;;0.90;0.47;;;6.70;1.00;;;;;;5092272;28;20429;-59
2022/02/11 10:36:36;;;;;;;1.20;0.40;;;6.80;1.00;;;;;;5082028;28;20523;-61
2022/02/11 10:39:07;;;;;;;0.77;0.40;;;6.80;1.00;;;;;;5086409;28;20439;-60
2022/02/11 10:41:37;;;;;;;1.05;0.50;;;6.80;1.00;;;;;;5078342;28;20443;-61
2022/02/11 10:44:09;;;;;;;1.70;0.50;;;6.70;1.00;;;;;;5080518;28;20470;-59
2022/02/11 10:46:37;;;;;;;0.90;0.50;;;6.80;1.00;;;;;;5093801;28;20454;-60
2022/02/11 10:49:07;;;;;;;0.90;0.50;;;6.80;99.90;;;;;;5078868;28;20515;-61
2022/02/11 10:51:39;;;;;;;0.90;0.40;;;6.60;1.00;;;;;;5085313;28;20432;-60
2022/02/11 10:54:23;;;;;;;3.13;0.40;;;6.50;1.00;;;;;;5083956;28;20432;-60
2022/02/11 10:56:52;;;;;;;1.40;0.50;;;6.20;99.90;;;;;;5080432;28;20820;-61
2022/02/11 10:59:28;;;;;;;1.40;0.50;;;6.10;1.00;;;;;;5082080;28;20422;-60
2022/02/11 11:01:56;;;;;;;3.67;0.70;;;6.20;1.00;;;;;;5084847;28;20510;-61
2022/02/11 11:04:26;;;;;;;2.80;1.17;;;6.40;1.00;;;;;;5081442;28;20510;-59
2022/02/11 11:06:57;;;;;;;1.75;0.65;;;6.50;1.00;;;;;;5090183;28;20833;-59
2022/02/11 11:09:25;;;;;;;2.33;0.70;;;6.50;1.00;;;;;;5089800;28;20438;-59
2022/02/11 11:11:53;;;;;;;1.58;0.80;;;6.60;1.00;;;;;;5089399;28;20516;-59
2022/02/11 11:14:23;;;;;;;2.00;0.70;;;6.60;1.00;;;;;;5083402;28;20459;-59
2022/02/11 11:16:51;;;;;;;3.95;1.40;;;6.70;1.00;;;;;;5079370;28;20447;-60
2022/02/11 11:19:21;;;;;;;2.20;0.80;;;7.20;1.00;;;;;;5091851;28;20421;-60
2022/02/11 11:22:10;;;;;;;1.33;0.70;;;7.30;99.90;;;;;;5092960;28;20446;-60
2022/02/11 11:24:43;;;;;;;2.38;0.57;;;7.20;99.90;;;;;;5089271;28;20709;-60
2022/02/11 11:27:10;;;;;;;0.80;0.40;;;7.20;99.90;;;;;;5077250;28;20411;-61
2022/02/11 11:29:37;;;;;;;1.20;0.50;;;6.90;99.90;;;;;;5083607;28;20513;-51
2022/02/11 11:32:05;;;;;;;1.17;0.50;;;6.80;99.90;;;;;;5086159;28;20663;-61
2022/02/11 11:34:35;;;;;;;2.20;0.40;;;7.00;99.90;;;;;;5079551;28;20733;-61
2022/02/11 11:37:10;;;;;;;2.28;0.50;;;7.10;99.90;;;;;;5089597;28;20839;-60
2022/02/11 11:39:40;;;;;;;0.60;0.40;;;7.20;99.90;;;;;;5072601;28;20723;-60
2022/02/11 11:42:12;;;;;;;1.10;0.50;;;6.80;99.90;;;;;;5087115;28;20426;-60
2022/02/11 11:44:44;;;;;;;0.70;0.50;;;7.00;99.90;;;;;;5085468;28;20915;-60
2022/02/11 11:47:18;;;;;;;0.95;0.50;;;7.30;99.90;;;;;;5083981;28;20725;-61
2022/02/11 11:49:53;;;;;;;1.80;0.50;;;7.60;99.90;;;;;;5089666;28;20433;-60
2022/02/11 11:52:22;;;;;;;0.93;0.50;;;7.70;99.90;;;;;;5082686;28;20427;-60
2022/02/11 11:55:19;;;;;;;1.38;0.50;;;7.40;99.90;;;;;;5076822;28;20432;-60
2022/02/11 11:57:46;;;;;;;2.63;0.40;;;7.30;99.90;;;;;;5074455;28;20909;-60
2022/02/11 12:00:32;;;;;;;0.82;0.40;;;7.20;99.90;;;;;;5090022;28;20519;-60
2022/02/11 12:02:59;;;;;;;0.80;0.40;;;7.20;99.90;;;;;;5091356;28;20422;-60
2022/02/11 12:05:42;;;;;;;1.02;0.40;;;7.10;99.90;;;;;;5089428;28;20458;-61
2022/02/11 12:08:10;;;;;;;1.30;0.40;;;7.30;99.90;;;;;;5080674;28;20424;-60
2022/02/11 12:10:37;;;;;;;1.30;0.40;;;7.20;99.90;;;;;;5081213;28;20514;-60
2022/02/11 12:13:08;;;;;;;0.80;0.50;;;7.50;99.90;;;;;;5089385;28;20418;-61
2022/02/11 12:15:35;;;;;;;2.63;0.70;;;7.90;73.90;;;;;;5075047;28;20495;-61
2022/02/11 12:18:02;;;;;;;1.40;0.40;;;8.10;4.80;;;;;;5091459;28;20927;-61
2022/02/11 12:20:29;;;;;;;0.90;0.40;;;8.00;1.00;;;;;;5090207;28;20465;-60
2022/02/11 12:28:24;;;;;;;0.98;0.50;;;8.20;1.00;;;;;;5091192;28;20880;-60
2022/02/11 12:30:51;;;;;;;1.30;0.50;;;8.10;1.00;;;;;;5088568;28;20897;-61
2022/02/11 12:33:21;;;;;;;1.10;0.60;;;7.80;1.00;;;;;;5087510;28;20426;-61
2022/02/11 12:35:50;;;;;;;0.80;0.40;;;7.70;1.00;;;;;;5084114;28;20476;-60
2022/02/11 12:38:17;;;;;;;0.80;0.40;;;7.90;1.00;;;;;;5083962;28;20425;-61
2022/02/11 12:40:48;;;;;;;1.20;0.50;;;7.80;1.00;;;;;;5083361;28;20434;-61
2022/02/11 12:43:18;;;;;;;0.93;0.50;;;7.60;1.00;;;;;;5080940;28;20850;-61
2022/02/11 12:45:47;;;;;;;11.07;7.63;;;7.80;1.00;;;;;;5082692;28;20748;-60
2022/02/11 12:48:18;;;;;;;3.15;1.00;;;7.80;1.00;;;;;;5089010;28;21275;-61
2022/02/11 12:50:48;;;;;;;2.00;0.70;;;7.50;1.00;;;;;;5087891;28;20789;-60
2022/02/11 12:53:18;;;;;;;1.58;0.50;;;7.50;1.00;;;;;;5088817;28;20534;-61
2022/02/11 12:55:50;;;;;;;0.70;0.50;;;7.40;1.00;;;;;;5084957;28;20518;-61
2022/02/11 12:58:20;;;;;;;1.35;0.70;;;7.60;1.00;;;;;;5089602;28;20520;-61
2022/02/11 13:00:50;;;;;;;2.80;0.50;;;7.70;1.00;;;;;;5081428;28;20523;-60
2022/02/11 13:03:22;;;;;;;1.02;0.40;;;8.00;1.00;;;;;;5086463;28;20457;-61
2022/02/11 13:05:52;;;;;;;2.60;0.60;;;8.00;1.00;;;;;;5088827;28;20488;-60
2022/02/11 13:08:20;;;;;;;0.77;0.50;;;8.10;1.00;;;;;;5091678;28;21095;-61
2022/02/11 13:10:56;;;;;;;1.35;0.50;;;7.60;1.00;;;;;;5089087;28;20849;-61
2022/02/11 13:13:23;;;;;;;1.95;0.50;;;7.70;1.00;;;;;;5092615;28;20414;-64
2022/02/11 13:15:50;;;;;;;1.80;0.90;;;7.90;1.00;;;;;;5091451;28;20537;-63
2022/02/11 13:18:18;;;;;;;2.63;1.20;;;7.80;1.00;;;;;;5094450;28;20488;-64
2022/02/11 13:20:47;;;;;;;6.47;2.30;;;7.90;1.00;;;;;;5093140;28;20460;-63
2022/02/11 13:23:15;;;;;;;1.10;0.70;;;7.70;1.00;;;;;;5093977;28;20590;-64
2022/02/11 13:25:43;;;;;;;1.20;0.40;;;7.70;1.00;;;;;;5092691;28;20465;-64
2022/02/11 13:28:15;;;;;;;0.75;0.50;;;7.80;1.00;;;;;;5092357;28;20508;-64
2022/02/11 13:30:54;;;;;;;1.50;0.40;;;7.50;1.00;;;;;;5091436;28;20536;-64
2022/02/11 13:33:23;;;;;;;0.70;0.43;;;7.10;1.00;;;;;;5093622;28;20450;-64
2022/02/11 13:35:53;;;;;;;3.20;0.50;;;7.00;1.00;;;;;;5092624;28;20438;-64
2022/02/11 13:38:25;;;;;;;1.00;0.50;;;7.00;1.00;;;;;;5092431;28;20921;-63
2022/02/11 13:40:53;;;;;;;0.90;0.40;;;7.00;1.00;;;;;;5089929;28;20421;-64
2022/02/11 13:43:22;;;;;;;1.00;0.50;;;7.10;1.00;;;;;;5091292;28;20442;-63
2022/02/11 13:45:54;;;;;;;0.90;0.50;;;7.20;1.00;;;;;;5090611;28;20508;-62
2022/02/11 13:48:23;;;;;;;7.60;2.00;;;7.20;1.00;;;;;;5091629;28;20414;-64
2022/02/11 13:51:05;;;;;;;7.30;2.80;;;7.20;1.00;;;;;;5092138;28;20434;-63
2022/02/11 13:53:39;;;;;;;6.30;2.70;;;7.00;1.00;;;;;;5093569;28;20851;-64
2022/02/11 13:56:07;;;;;;;2.53;0.70;;;7.00;1.00;;;;;;5094522;28;20426;-64
2022/02/11 13:58:36;;;;;;;3.20;0.90;;;7.30;1.00;;;;;;5095905;28;20846;-64
2022/02/11 14:01:04;;;;;;;1.60;0.60;;;7.60;1.00;;;;;;5095253;28;20532;-64
2022/02/11 14:03:32;;;;;;;1.65;0.45;;;7.30;1.00;;;;;;5097094;28;20489;-65
2022/02/11 14:06:04;;;;;;;0.80;0.40;;;7.20;1.00;;;;;;5096637;28;20807;-64
2022/02/11 14:08:41;;;;;;;1.00;0.50;;;7.30;1.00;;;;;;5098401;28;20457;-65
2022/02/11 14:11:10;;;;;;;0.60;0.40;;;7.30;1.00;;;;;;5095701;28;20520;-65
2022/02/11 14:13:41;;;;;;;2.30;0.40;;;7.10;1.00;;;;;;5094906;28;20418;-64
2022/02/11 14:16:09;;;;;;;0.60;0.40;;;6.90;1.00;;;;;;5072309;28;20873;-65
2022/02/11 14:18:39;;;;;;;0.70;0.45;;;6.70;1.00;;;;;;5078464;28;20455;-66
2022/02/11 14:21:06;;;;;;;1.50;0.50;;;6.70;1.00;;;;;;5076253;28;20945;-65
2022/02/11 14:23:33;;;;;;;0.80;0.40;;;6.70;1.00;;;;;;5086200;28;20513;-66
2022/02/11 14:26:01;;;;;;;0.73;0.40;;;6.80;1.00;;;;;;5092073;28;20516;-65
2022/02/11 14:28:30;;;;;;;1.15;0.40;;;6.70;1.00;;;;;;5094716;28;20540;-65
2022/02/11 14:30:59;;;;;;;0.60;0.40;;;6.60;1.00;;;;;;5093170;28;20818;-66
2022/02/11 14:33:27;;;;;;;1.20;0.50;;;6.60;1.00;;;;;;5093915;28;20537;-65
2022/02/11 14:35:53;;;;;;;0.70;0.40;;;6.70;1.00;;;;;;5092287;28;20438;-65
2022/02/11 14:38:20;;;;;;;0.60;0.40;;;6.70;1.00;;;;;;5090783;28;20535;-65
2022/02/11 14:43:35;;;;;;;0.60;0.30;;;6.90;1.00;;;;;;5093365;28;20409;-65
2022/02/11 14:46:06;;;;;;;1.00;0.30;;;7.00;1.00;;;;;;5091878;28;20433;-64
2022/02/11 14:48:36;;;;;;;1.00;0.40;;;6.90;1.00;;;;;;5092720;28;20495;-64
2022/02/11 14:51:06;;;;;;;1.20;0.50;;;7.00;1.00;;;;;;5092022;28;20976;-65
2022/02/11 14:53:35;;;;;;;2.30;0.50;;;6.90;1.00;;;;;;5093545;28;20454;-64
2022/02/11 14:56:07;;;;;;;1.60;0.90;;;6.80;1.00;;;;;;5072365;28;20443;-63
2022/02/11 14:58:35;;;;;;;0.90;0.50;;;6.70;1.00;;;;;;5079141;28;20453;-64
2022/02/11 15:01:04;;;;;;;1.10;0.40;;;6.70;1.00;;;;;;5091051;28;20651;-62
2022/02/11 15:03:33;;;;;;;1.20;0.60;;;7.10;1.00;;;;;;5081183;28;20475;-63
2022/02/11 15:06:00;;;;;;;1.52;0.50;;;7.10;1.00;;;;;;5075477;28;20459;-63
2022/02/11 15:08:27;;;;;;;1.80;0.50;;;7.10;1.00;;;;;;5089110;28;20874;-63
2022/02/11 15:10:54;;;;;;;2.28;0.60;;;7.30;1.00;;;;;;5081218;28;20730;-63
2022/02/11 15:13:21;;;;;;;1.42;0.50;;;7.30;1.00;;;;;;5083898;28;20811;-63
2022/02/11 15:15:48;;;;;;;2.50;0.50;;;7.40;1.00;;;;;;5090394;28;20513;-63
2022/02/11 15:18:15;;;;;;;1.90;0.40;;;7.20;1.00;;;;;;5091685;28;20422;-63
2022/02/11 15:20:45;;;;;;;1.80;0.40;;;7.10;1.00;;;;;;5088728;28;20433;-63
2022/02/11 15:23:15;;;;;;;2.00;0.40;;;7.00;1.00;;;;;;5086586;28;20723;-63
2022/02/11 15:25:44;;;;;;;1.30;0.50;;;7.00;1.00;;;;;;5084344;28;20442;-63
2022/02/11 15:28:11;;;;;;;1.10;0.40;;;6.90;1.00;;;;;;5087477;28;20732;-63
2022/02/11 15:30:42;;;;;;;1.10;0.50;;;6.80;1.00;;;;;;5088732;28;20569;-63
2022/02/11 15:33:13;;;;;;;1.10;0.40;;;6.80;1.00;;;;;;5087540;28;20425;-62
2022/02/11 15:35:41;;;;;;;1.50;0.40;;;7.10;1.00;;;;;;5083883;28;20430;-62
2022/02/11 15:38:10;;;;;;;1.17;0.40;;;7.20;1.00;;;;;;5090764;28;20849;-62
2022/02/11 15:40:37;;;;;;;1.80;0.50;;;7.00;1.00;;;;;;5088125;28;20429;-62
2022/02/11 15:43:04;;;;;;;0.98;0.50;;;7.10;1.00;;;;;;5092319;28;20475;-62
2022/02/11 15:45:31;;;;;;;2.17;0.50;;;7.00;1.00;;;;;;5084117;28;20499;-62
2022/02/11 15:47:59;;;;;;;2.70;0.40;;;7.00;1.00;;;;;;5083615;28;20434;-61
2022/02/11 15:50:25;;;;;;;2.03;0.50;;;6.90;1.00;;;;;;5086123;28;20525;-61
2022/02/11 15:52:53;;;;;;;0.80;0.50;;;6.70;1.00;;;;;;5089081;28;20569;-62
2022/02/11 15:55:21;;;;;;;0.70;0.40;;;6.70;1.00;;;;;;5090335;28;20414;-61
2022/02/11 15:57:48;;;;;;;1.20;0.47;;;6.70;1.00;;;;;;5088520;28;20623;-62
2022/02/11 16:00:16;;;;;;;10.63;5.13;;;6.60;1.00;;;;;;5078155;28;20418;-62
2022/02/11 16:02:46;;;;;;;2.40;0.60;;;6.60;1.00;;;;;;5089479;28;20604;-63
2022/02/11 16:05:13;;;;;;;1.60;0.50;;;6.80;1.00;;;;;;5089660;28;20499;-61
2022/02/11 16:07:40;;;;;;;1.00;0.40;;;6.70;1.00;;;;;;5083951;28;20940;-63
2022/02/11 16:10:09;;;;;;;1.40;0.50;;;6.50;1.00;;;;;;5089680;28;20453;-62
2022/02/11 16:12:37;;;;;;;1.30;0.40;;;6.40;1.00;;;;;;5079497;28;20815;-63
2022/02/11 16:15:14;;;;;;;1.83;0.70;;;6.40;1.00;;;;;;5083154;28;20842;-63
2022/02/11 16:17:59;;;;;;;1.10;0.70;;;6.40;1.00;;;;;;5086144;28;20437;-63
2022/02/11 16:20:27;;;;;;;0.90;0.50;;;6.30;1.00;;;;;;5085133;28;21151;-63
2022/02/11 16:22:53;;;;;;;12.45;1.00;;;6.20;1.00;;;;;;5084467;28;20926;-64
2022/02/11 16:25:24;;;;;;;7.15;1.00;;;6.40;1.00;;;;;;5088499;28;20808;-63
2022/02/11 16:27:55;;;;;;;8.70;0.80;;;6.60;1.00;;;;;;5084674;28;20826;-64
2022/02/11 16:30:23;;;;;;;6.80;0.70;;;6.90;1.00;;;;;;5086412;28;20491;-62
2022/02/11 16:32:50;;;;;;;4.35;0.80;;;7.10;1.00;;;;;;5085999;28;20447;-62